Latest Coastal Weather Observations for Evans Head

IDN60701

Issued at 11:35 am EST Thursday 31 July 2014 (issued every 10 minutes, with the page automatically refreshed every 10 minutes)

About coastal observations | Map of coastal stations | Coastal observations for NSW | Marine services | Other Formats
Station Details ID: 058212 Name: EVANS HEAD RAAF BOMBING RANGE AWS Lat: -29.18 Lon: 153.40 Height: 62.5 m
Data from the previous 72 hours. | See also: Recent months at Evans Head
Date/Time
EST
Temp

°C
Wind Pressure Rain
since 9am
mm
Weather Cloud Vis
km
Sea
Height
m
Swell
Dir
 
Speed
knots
Gust
knots
hPa Trend Height
m
Period
s
Dir
31/11:30am 23.7 N 7 11 1018.5 - 0.0 - - - - - - -
31/11:00am 22.5 NNW 4 6 1019.1 - 0.0 - - - - - - -
31/10:30am 20.6 WNW 3 7 1019.9 - 0.0 - - - - - - -
31/10:00am 20.7 N 6 10 1020.1 - 0.0 - - - - - - -
31/09:30am 18.3 CALM 0 4 1020.3 - 0.0 - - - - - - -
31/09:00am 16.3 N 5 6 1020.3 - 0.0 - - - - - - -
31/08:30am 17.3 CALM 0 0 1020.0 - 0.0 - - - - - - -
31/08:00am 15.9 CALM 0 0 1019.8 - 0.0 - - - - - - -
31/07:30am 14.1 N 0 0 1019.8 - 0.0 - - - - - - -
31/07:00am 11.7 N 2 3 1019.4 - 0.0 - - - - - - -
31/06:30am 10.3 NNW 4 5 1019.2 - 0.0 - - - - - - -
31/06:00am 10.0 NNW 5 6 1019.1 - 0.0 - - - - - - -
31/05:30am 12.5 WNW 6 8 1018.8 - 0.0 - - - - - - -
31/05:00am 12.1 NW 6 8 1018.6 - 0.0 - - - - - - -
31/04:30am 12.4 NW 7 9 1018.5 - 0.0 - - - - - - -
31/04:00am 13.2 WNW 7 9 1018.3 - 0.0 - - - - - - -
31/03:30am 12.5 WNW 7 9 1018.5 - 0.0 - - - - - - -
31/03:00am 13.0 WNW 7 10 1018.7 - 0.0 - - - - - - -
31/02:30am 12.0 WNW 5 7 1018.8 - 0.0 - - - - - - -
31/02:00am 11.2 NNW 9 12 1018.6 - 0.0 - - - - - - -
31/01:30am 9.5 N 6 10 1019.1 - 0.0 - - - - - - -
31/01:00am 10.5 N 7 8 1019.3 - 0.0 - - - - - - -
31/12:30am 13.1 NW 5 7 1019.7 - 0.0 - - - - - - -
31/12:00am 13.7 WNW 6 7 1019.8 - 0.0 - - - - - - -
 
Date/Time
EST
Temp

°C
Wind Pressure Rain
since 9am
mm
Weather Cloud Vis
km
Sea
Height
m
Swell
Dir
 
Speed
knots
Gust
knots
hPa Trend Height
m
Period
s
Dir
30/11:30pm 10.7 NNW 6 8 1020.0 - 0.0 - - - - - - -
30/11:00pm 10.7 N 5 6 1019.9 - 0.0 - - - - - - -
30/10:30pm 10.9 N 6 8 1019.9 - 0.0 - - - - - - -
30/10:00pm 10.9 N 7 10 1019.6 - 0.0 - - - - - - -
30/09:30pm 11.5 N 7 9 1019.8 - 0.0 - - - - - - -
30/09:00pm 12.3 N 7 8 1019.6 - 0.0 - - - - - - -
30/08:30pm 13.8 N 9 12 1019.6 - 0.0 - - - - - - -
30/08:00pm 14.2 N 9 13 1019.3 - 0.0 - - - - - - -
30/07:30pm 12.7 N 8 12 1019.5 - 0.0 - - - - - - -
30/07:00pm 12.4 N 8 9 1019.4 - 0.0 - - - - - - -
30/06:30pm 13.3 N 7 9 1019.4 - 0.0 - - - - - - -
30/06:00pm 13.6 N 6 7 1019.2 - 0.0 - - - - - - -
30/05:30pm 14.8 N 7 8 1019.2 - 0.0 - - - - - - -
30/05:00pm 16.3 N 6 7 1019.0 - 0.0 - - - - - - -
30/04:30pm 17.6 N 6 9 1019.0 - 0.0 - - - - - - -
30/04:00pm 19.2 N 6 9 1018.8 - 0.0 - - - - - - -
30/03:30pm 19.8 ENE 5 8 1018.6 - 0.0 - - - - - - -
30/03:00pm 19.8 E 5 7 1018.6 - 0.0 - - - - - - -
30/02:30pm 19.9 E 5 7 1018.8 - 0.0 - - - - - - -
30/02:00pm 20.3 SE 6 7 1018.9 - 0.0 - - - - - - -
30/01:30pm 20.6 SE 6 8 1019.2 - 0.0 - - - - - - -
30/01:00pm 20.1 E 7 9 1019.3 - 0.0 - - - - - - -
30/12:30pm 22.1 WNW 2 7 1019.9 - 0.0 - - - - - - -
30/12:00pm 20.9 WSW 3 6 1020.4 - 0.0 - - - - - - -
30/11:30am 20.8 WSW 3 5 1020.9 - 0.0 - - - - - - -
30/11:00am 19.5 W 5 8 1021.5 - 0.0 - - - - - - -
30/10:30am 19.4 W 4 6 1021.9 - 0.0 - - - - - - -
30/10:00am 20.0 NNW 5 9 1022.1 - 0.0 - - - - - - -
30/09:30am 18.9 NNW 5 9 1022.4 - 0.0 - - - - - - -
30/09:00am 17.6 NNW 6 9 1022.4 - 0.0 - - - - - - -
30/08:30am 15.6 N 6 7 1022.4 - 0.0 - - - - - - -
30/08:00am 13.0 N 6 8 1022.2 - 0.0 - - - - - - -
30/07:30am 11.1 N 4 5 1021.9 - 0.0 - - - - - - -
30/07:00am 9.2 NW 7 9 1021.6 - 0.0 - - - - - - -
30/06:30am 8.7 NNW 6 7 1021.2 - 0.0 - - - - - - -
30/06:00am 10.1 NNW 5 6 1020.9 - 0.0 - - - - - - -
30/05:30am 11.8 WNW 8 10 1020.7 - 0.0 - - - - - - -
30/05:00am 11.0 NW 7 8 1020.5 - 0.0 - - - - - - -
30/04:30am 11.9 NW 8 10 1020.3 - 0.0 - - - - - - -
30/04:00am 12.1 WNW 8 11 1020.1 - 0.0 - - - - - - -
30/03:30am 11.8 NW 8 11 1020.0 - 0.0 - - - - - - -
30/03:00am 11.5 WNW 7 10 1020.0 - 0.0 - - - - - - -
30/02:30am 9.8 NNW 6 7 1020.0 - 0.0 - - - - - - -
30/02:00am 13.0 NW 9 12 1019.9 - 0.0 - - - - - - -
30/01:30am 13.2 WNW 8 12 1020.4 - 0.0 - - - - - - -
30/01:00am 11.0 NW 7 10 1020.5 - 0.0 - - - - - - -
30/12:30am 11.5 NW 8 11 1020.7 - 0.0 - - - - - - -
30/12:00am 10.1 NNW 6 10 1020.7 - 0.0 - - - - - - -
 
Date/Time
EST
Temp

°C
Wind Pressure Rain
since 9am
mm
Weather Cloud Vis
km
Sea
Height
m
Swell
Dir
 
Speed
knots
Gust
knots
hPa Trend Height
m
Period
s
Dir
29/11:30pm 12.5 NW 7 10 1020.8 - 0.0 - - - - - - -
29/11:00pm 11.6 NNW 8 13 1020.8 - 0.0 - - - - - - -
29/10:30pm 11.3 NNW 7 10 1020.9 - 0.0 - - - - - - -
29/10:00pm 11.1 N 6 9 1020.8 - 0.0 - - - - - - -
29/09:30pm 11.7 N 8 11 1020.5 - 0.0 - - - - - - -
29/09:00pm 12.5 N 9 13 1020.1 - 0.0 - - - - - - -
29/08:30pm 13.4 N 10 15 1020.1 - 0.0 - - - - - - -
29/08:00pm 12.7 N 9 11 1020.0 - 0.0 - - - - - - -
29/07:30pm 12.6 N 8 11 1019.9 - 0.0 - - - - - - -
29/07:00pm 13.1 N 6 9 1019.5 - 0.0 - - - - - - -
29/06:30pm 13.6 N 8 10 1019.3 - 0.0 - - - - - - -
29/06:00pm 14.7 NNE 7 9 1019.0 - 0.0 - - - - - - -
29/05:30pm 15.0 NNE 6 8 1018.9 - 0.0 - - - - - - -
29/05:00pm 15.7 NNE 6 7 1018.7 - 0.0 - - - - - - -
29/04:30pm 16.9 NNE 5 7 1018.9 - 0.0 - - - - - - -
29/04:00pm 17.6 ENE 6 8 1019.0 - 0.0 - - - - - - -
29/03:30pm 18.2 E 6 8 1019.1 - 0.0 - - - - - - -
29/03:00pm 19.0 E 6 7 1018.9 - 0.0 - - - - - - -
29/02:30pm 19.2 E 5 7 1019.2 - 0.0 - - - - - - -
29/02:00pm 19.1 SE 6 9 1019.3 - 0.0 - - - - - - -
29/01:30pm 19.3 SSE 7 10 1019.7 - 0.0 - - - - - - -
29/01:00pm 19.9 S 5 9 1019.9 - 0.0 - - - - - - -
29/12:30pm 19.5 SW 3 6 1020.3 - 0.0 - - - - - - -
29/12:00pm 19.4 WSW 4 8 1020.9 - 0.0 - - - - - - -
29/11:30am 18.6 WSW 5 8 1021.5 - 0.0 - - - - - - -
29/11:00am 18.7 W 4 8 1022.0 - 0.0 - - - - - - -
29/10:30am 17.5 W 6 8 1022.2 - 0.0 - - - - - - -
29/10:00am 16.5 WNW 5 9 1022.3 - 0.0 - - - - - - -
29/09:30am 15.4 W 5 7 1022.4 - 0.0 - - - - - - -
29/09:00am 14.6 WNW 5 8 1022.3 - 0.0 - - - - - - -
29/08:30am 13.6 NW 4 6 1022.1 - 0.0 - - - - - - -
29/08:00am 11.8 NNW 3 5 1022.0 - 0.0 - - - - - - -
29/07:30am 10.5 WNW 6 7 1021.7 - 0.0 - - - - - - -
29/07:00am 10.4 WNW 6 7 1021.4 - 0.0 - - - - - - -
29/06:30am 10.4 WNW 8 9 1021.1 - 0.0 - - - - - - -
29/06:00am 10.9 WNW 7 8 1020.7 - 0.0 - - - - - - -
29/05:30am 10.7 WNW 7 8 1020.5 - 0.0 - - - - - - -
29/05:00am 11.2 W 6 8 1020.3 - 0.0 - - - - - - -
29/04:30am 10.7 NW 8 11 1020.1 - 0.0 - - - - - - -
29/04:00am 11.2 WNW 7 9 1019.7 - 0.0 - - - - - - -
29/03:30am 11.3 WNW 6 9 1019.8 - 0.0 - - - - - - -
29/03:00am 11.3 WNW 7 9 1019.5 - 0.0 - - - - - - -
29/02:30am 11.4 WNW 7 9 1019.6 - 0.0 - - - - - - -
29/02:00am 9.9 NNW 6 8 1019.7 - 0.0 - - - - - - -
29/01:30am 11.1 NNW 8 11 1020.0 - 0.0 - - - - - - -
29/01:00am 10.5 NNW 7 11 1020.0 - 0.0 - - - - - - -
29/12:30am 10.8 NNW 6 7 1020.2 - 0.0 - - - - - - -
29/12:00am 10.5 N 6 8 1020.1 - 0.0 - - - - - - -
 
Date/Time
EST
Temp

°C
Wind Pressure Rain
since 9am
mm
Weather Cloud Vis
km
Sea
Height
m
Swell
Dir
 
Speed
knots
Gust
knots
hPa Trend Height
m
Period
s
Dir
28/11:30pm 11.8 NW 6 9 1020.4 - 0.0 - - - - - - -
28/11:00pm 10.7 NNW 5 7 1020.4 - 0.0 - - - - - - -
28/10:30pm 10.7 N 6 7 1020.6 - 0.0 - - - - - - -
28/10:00pm 11.4 N 6 8 1020.8 - 0.0 - - - - - - -
28/09:30pm 11.6 N 7 9 1020.6 - 0.0 - - - - - - -
28/09:00pm 12.2 N 7 9 1020.8 - 0.0 - - - - - - -
28/08:30pm 12.5 N 6 8 1020.9 - 0.0 - - - - - - -
28/08:00pm 13.1 N 6 7 1020.7 - 0.0 - - - - - - -
28/07:30pm 14.0 N 8 11 1020.5 - 0.0 - - - - - - -
28/07:00pm 14.3 N 8 13 1020.3 - 0.0 - - - - - - -
28/06:30pm 14.1 N 8 11 1020.1 - 0.0 - - - - - - -
28/06:00pm 15.0 N 7 9 1019.8 - 0.0 - - - - - - -
28/05:30pm 15.8 N 7 11 1019.8 - 0.0 - - - - - - -
28/05:00pm 16.7 N 7 10 1019.7 - 0.0 - - - - - - -
28/04:30pm 17.9 N 6 9 1019.8 - 0.0 - - - - - - -
28/04:00pm 19.1 N 7 11 1019.5 - 0.0 - - - - - - -
28/03:30pm 20.2 N 7 13 1019.6 - 0.0 - - - - - - -
28/03:00pm 22.3 NNW 6 10 1019.5 - 0.0 - - - - - - -
28/02:30pm 22.9 NNW 8 12 1019.7 - 0.0 - - - - - - -
28/02:00pm 22.5 NW 6 12 1019.9 - 0.0 - - - - - - -
28/01:30pm 22.8 NW 9 15 1020.2 - 0.0 - - - - - - -
28/01:00pm 22.7 NNW 9 14 1020.6 - 0.0 - - - - - - -
28/12:30pm 22.5 NNW 9 17 1021.3 - 0.0 - - - - - - -
28/12:00pm 21.8 NNW 8 13 1022.0 - 0.0 - - - - - - -

Other Formats:

Comma delimited format used in spreadsheet applications
http://www.bom.gov.au/fwo/IDN60701/IDN60701.94598.axf

JavaScript Object Notation format (JSON) in row-major order
http://www.bom.gov.au/fwo/IDN60701/IDN60701.94598.json